createdAt,value
2023-06-19T00:00:01.939Z,28.10
2023-06-19T00:02:40.464Z,28.20
2023-06-19T00:05:09.724Z,27.60
2023-06-19T00:07:39.115Z,27.50
2023-06-19T00:10:08.355Z,27.20
2023-06-19T00:12:36.769Z,27.10
2023-06-19T00:15:08.521Z,27.30
2023-06-19T00:17:38.440Z,27.50
2023-06-19T00:20:08.734Z,27.60
2023-06-19T00:22:36.943Z,27.30
2023-06-19T00:25:08.317Z,27.10
2023-06-19T00:27:36.660Z,27.00
2023-06-19T00:30:07.478Z,26.90
2023-06-19T00:32:42.153Z,26.80
2023-06-19T00:35:10.704Z,26.50
2023-06-19T00:37:38.900Z,26.30
2023-06-19T00:40:09.773Z,26.20
2023-06-19T00:42:37.999Z,26.60
2023-06-19T00:45:08.774Z,26.80
2023-06-19T00:47:37.015Z,27.00
2023-06-19T00:50:06.333Z,27.20
2023-06-19T00:52:34.614Z,27.30
2023-06-19T00:55:03.394Z,27.50
2023-06-19T00:57:33.121Z,27.70
2023-06-19T01:00:01.477Z,27.40
2023-06-19T01:02:31.367Z,27.40
2023-06-19T01:04:59.600Z,27.10
2023-06-19T01:07:41.564Z,27.00
2023-06-19T01:10:14.069Z,27.10
2023-06-19T01:12:53.216Z,27.10
2023-06-19T01:15:24.287Z,27.20
2023-06-19T01:17:55.589Z,27.20
2023-06-19T01:20:24.890Z,27.20
2023-06-19T01:22:57.695Z,27.10
2023-06-19T01:25:26.501Z,26.70
2023-06-19T01:27:54.794Z,26.80
2023-06-19T01:30:23.311Z,26.70
2023-06-19T01:32:56.075Z,26.60
2023-06-19T01:35:29.462Z,26.70
2023-06-19T01:38:00.322Z,26.90
2023-06-19T01:40:32.739Z,26.90
2023-06-19T01:43:02.534Z,26.80
2023-06-19T01:45:32.115Z,26.60
2023-06-19T01:48:02.587Z,26.70
2023-06-19T01:50:30.871Z,26.80
2023-06-19T01:53:00.466Z,26.70
2023-06-19T01:55:28.696Z,26.70
2023-06-19T01:57:59.132Z,26.40
2023-06-19T02:00:27.428Z,26.40
2023-06-19T02:03:00.021Z,26.30
2023-06-19T02:05:28.348Z,26.40
2023-06-19T02:07:56.593Z,26.40
2023-06-19T02:10:26.270Z,26.20
2023-06-19T02:12:54.638Z,26.60
2023-06-19T02:15:22.886Z,26.80
2023-06-19T02:17:55.931Z,27.00
2023-06-19T02:20:25.533Z,27.20
2023-06-19T02:22:54.200Z,27.40
2023-06-19T02:25:22.428Z,27.50
2023-06-19T02:27:52.094Z,27.50
2023-06-19T02:30:20.387Z,27.40
2023-06-19T02:32:48.645Z,27.50
2023-06-19T02:35:18.287Z,27.30
2023-06-19T02:37:47.487Z,27.30
2023-06-19T02:40:16.385Z,27.30
2023-06-19T02:42:44.634Z,27.30
2023-06-19T02:45:14.288Z,27.40
2023-06-19T02:47:43.489Z,27.20
2023-06-19T02:50:13.913Z,27.10
2023-06-19T02:52:42.162Z,26.80
2023-06-19T02:55:10.998Z,26.60
2023-06-19T02:57:39.209Z,26.30
2023-06-19T03:00:10.526Z,26.60
2023-06-19T03:02:42.878Z,26.80
2023-06-19T03:05:11.863Z,26.90
2023-06-19T03:07:40.309Z,27.00
2023-06-19T03:10:09.050Z,27.00
2023-06-19T03:12:37.313Z,27.00
2023-06-19T03:15:06.373Z,27.10
2023-06-19T03:17:37.033Z,27.10
2023-06-19T03:20:13.020Z,27.10
2023-06-19T03:22:45.632Z,27.00
2023-06-19T03:25:21.048Z,27.10
2023-06-19T03:27:50.158Z,27.20
2023-06-19T03:30:19.696Z,27.30
2023-06-19T03:32:50.940Z,27.30
2023-06-19T03:35:42.836Z,27.30
2023-06-19T03:38:17.900Z,27.30
2023-06-19T03:40:47.354Z,27.30
2023-06-19T03:43:15.693Z,27.30
2023-06-19T03:45:47.490Z,27.20
2023-06-19T03:48:16.129Z,27.10
2023-06-19T03:50:46.061Z,27.40
2023-06-19T03:53:14.400Z,27.60
2023-06-19T03:55:42.735Z,27.70
2023-06-19T03:58:10.983Z,27.80
2023-06-19T04:00:39.192Z,28.00
2023-06-19T04:03:07.712Z,28.00
2023-06-19T04:05:36.987Z,28.00
2023-06-19T04:08:07.644Z,28.10
2023-06-19T04:10:36.142Z,28.20
2023-06-19T04:13:06.117Z,28.20
2023-06-19T04:15:35.546Z,28.20
2023-06-19T04:18:04.242Z,28.20
2023-06-19T04:20:32.431Z,28.40
2023-06-19T04:23:00.635Z,28.50
2023-06-19T04:25:30.701Z,28.40
2023-06-19T04:27:58.916Z,28.20
2023-06-19T04:30:27.812Z,28.60
2023-06-19T04:32:56.218Z,28.60
2023-06-19T04:35:24.765Z,28.70
2023-06-19T04:37:53.208Z,28.70
2023-06-19T04:40:21.780Z,28.90
2023-06-19T04:42:54.893Z,29.00
2023-06-19T04:45:23.120Z,29.20
2023-06-19T04:47:53.997Z,29.40
2023-06-19T04:50:23.657Z,29.60
2023-06-19T04:52:53.039Z,29.80
2023-06-19T04:55:21.471Z,29.80
2023-06-19T04:57:51.081Z,29.70
2023-06-19T05:00:21.162Z,30.00
2023-06-19T05:02:49.995Z,30.10
2023-06-19T05:05:18.853Z,30.30
2023-06-19T05:07:48.460Z,30.50
2023-06-19T05:10:17.529Z,30.80
2023-06-19T05:12:45.772Z,31.00
2023-06-19T05:15:15.623Z,31.20
2023-06-19T05:17:47.421Z,31.30
2023-06-19T05:20:16.387Z,31.30
2023-06-19T05:22:44.637Z,31.40
2023-06-19T05:25:12.982Z,31.50
2023-06-19T05:27:41.233Z,31.50
2023-06-19T05:30:10.605Z,31.60
2023-06-19T05:32:40.365Z,31.10
2023-06-19T05:35:09.330Z,31.10
2023-06-19T05:37:39.013Z,31.20
2023-06-19T05:40:08.878Z,31.50
2023-06-19T05:42:37.062Z,31.50
2023-06-19T05:45:09.097Z,31.70
2023-06-19T05:47:37.366Z,31.90
2023-06-19T05:50:08.405Z,32.00
2023-06-19T05:52:37.051Z,31.90
2023-06-19T05:55:06.140Z,32.10
2023-06-19T05:57:34.701Z,32.20
2023-06-19T06:00:04.571Z,32.40
2023-06-19T06:02:41.112Z,32.50
2023-06-19T06:05:11.366Z,32.60
2023-06-19T06:07:41.503Z,32.50
2023-06-19T06:10:10.880Z,32.60
2023-06-19T06:12:39.288Z,32.70
2023-06-19T06:15:08.515Z,32.80
2023-06-19T06:17:39.763Z,32.80
2023-06-19T06:20:13.218Z,32.90
2023-06-19T06:22:43.030Z,32.90
2023-06-19T06:25:13.565Z,32.80
2023-06-19T06:27:43.214Z,32.80
2023-06-19T06:30:13.649Z,32.90
2023-06-19T06:32:41.894Z,32.90
2023-06-19T06:35:11.605Z,33.00
2023-06-19T06:37:39.829Z,33.00
2023-06-19T06:40:12.049Z,33.00
2023-06-19T06:42:40.836Z,33.00
2023-06-19T06:45:09.928Z,33.10
2023-06-19T06:47:38.344Z,33.30
2023-06-19T06:50:07.556Z,33.10
2023-06-19T06:52:37.206Z,33.20
2023-06-19T06:55:06.133Z,33.20
2023-06-19T06:57:34.535Z,33.20
2023-06-19T07:00:04.542Z,33.40
2023-06-19T07:02:33.104Z,33.50
2023-06-19T07:05:01.381Z,33.70
2023-06-19T07:07:29.602Z,33.70
2023-06-19T07:09:59.215Z,33.70
2023-06-19T07:12:27.410Z,33.70
2023-06-19T07:14:55.915Z,33.90
2023-06-19T07:17:25.254Z,33.90
2023-06-19T07:19:53.620Z,33.80
2023-06-19T07:22:21.905Z,34.00
2023-06-19T07:24:50.119Z,34.00
2023-06-19T07:27:20.011Z,34.00
2023-06-19T07:29:48.202Z,34.20
2023-06-19T07:32:16.945Z,34.30
2023-06-19T07:34:45.143Z,34.00
2023-06-19T07:37:18.441Z,33.60
2023-06-19T07:39:46.825Z,33.40
2023-06-19T07:42:18.354Z,33.50
2023-06-19T07:44:50.855Z,33.50
2023-06-19T07:47:21.427Z,34.00
2023-06-19T07:49:49.676Z,34.20
2023-06-19T07:52:18.084Z,34.10
2023-06-19T07:54:54.729Z,34.40
2023-06-19T07:57:23.425Z,34.60
2023-06-19T07:59:56.654Z,34.60
2023-06-19T08:02:25.164Z,34.90
2023-06-19T08:04:55.261Z,35.00
2023-06-19T08:07:25.178Z,35.30
2023-06-19T08:10:03.998Z,35.40
2023-06-19T08:12:42.498Z,35.40
2023-06-19T08:15:14.355Z,35.20
2023-06-19T08:17:46.532Z,35.20
2023-06-19T08:20:14.935Z,35.30
2023-06-19T08:22:43.140Z,35.40
2023-06-19T08:25:11.512Z,35.30
2023-06-19T08:27:39.764Z,35.70
2023-06-19T08:30:09.353Z,35.40
2023-06-19T08:32:39.149Z,35.20
2023-06-19T08:35:09.647Z,35.20
2023-06-19T08:37:37.912Z,34.50
2023-06-19T08:40:10.193Z,34.20
2023-06-19T08:42:40.119Z,34.20
2023-06-19T08:45:09.951Z,33.90
2023-06-19T08:47:41.861Z,34.30
2023-06-19T08:50:10.727Z,34.30
2023-06-19T08:52:38.977Z,34.50
2023-06-19T08:55:08.638Z,34.60
2023-06-19T08:57:37.908Z,34.60
2023-06-19T09:00:08.139Z,34.50
2023-06-19T09:02:45.277Z,34.40
2023-06-19T09:05:17.239Z,34.70
2023-06-19T09:07:46.142Z,34.90
2023-06-19T09:10:18.938Z,34.90
2023-06-19T09:13:02.416Z,35.30
2023-06-19T09:15:32.323Z,35.00
2023-06-19T09:18:08.833Z,34.50
2023-06-19T09:20:44.821Z,34.30
2023-06-19T09:23:14.059Z,34.40
2023-06-19T09:25:48.914Z,34.60
2023-06-19T09:28:25.102Z,34.50
2023-06-19T09:30:58.358Z,34.30
2023-06-19T09:33:30.174Z,34.60
2023-06-19T09:36:00.159Z,34.10
2023-06-19T09:38:29.980Z,34.70
2023-06-19T09:41:00.195Z,34.80
2023-06-19T09:43:32.718Z,34.80
2023-06-19T09:46:01.597Z,35.20
2023-06-19T09:48:33.581Z,35.60
2023-06-19T09:51:06.246Z,35.90
2023-06-19T09:53:37.679Z,36.00
2023-06-19T09:56:09.403Z,36.20
2023-06-19T09:58:39.087Z,36.30
2023-06-19T10:01:08.740Z,36.10
2023-06-19T10:03:39.062Z,36.20
2023-06-19T10:06:07.633Z,36.10
2023-06-19T10:08:42.502Z,35.90
2023-06-19T10:11:10.863Z,36.10
2023-06-19T10:13:41.921Z,35.60
2023-06-19T10:16:21.055Z,35.60
2023-06-19T10:18:52.436Z,35.60
2023-06-19T10:21:21.271Z,35.60
2023-06-19T10:23:56.989Z,35.80
2023-06-19T10:26:33.331Z,36.00
2023-06-19T10:29:01.808Z,36.30
2023-06-19T10:31:30.705Z,36.50
2023-06-19T10:34:00.391Z,36.30
2023-06-19T10:36:28.616Z,36.50
2023-06-19T10:38:56.921Z,36.90
2023-06-19T10:41:28.960Z,37.00
2023-06-19T10:43:59.770Z,37.10
2023-06-19T10:46:32.243Z,37.20
2023-06-19T10:49:05.187Z,37.00
2023-06-19T10:51:36.282Z,36.40
2023-06-19T10:54:04.846Z,36.50
2023-06-19T10:56:33.201Z,36.50
2023-06-19T10:59:02.700Z,36.60
2023-06-19T11:01:36.487Z,36.40
2023-06-19T11:04:07.712Z,36.20
2023-06-19T11:06:36.444Z,36.30
2023-06-19T11:09:06.288Z,36.50
2023-06-19T11:11:42.493Z,36.20
2023-06-19T11:14:11.888Z,36.30
2023-06-19T11:16:42.494Z,36.20
2023-06-19T11:19:16.453Z,36.30
2023-06-19T11:21:48.644Z,36.70
2023-06-19T11:24:18.125Z,36.80
2023-06-19T11:26:51.844Z,36.90
2023-06-19T11:29:22.051Z,36.90
2023-06-19T11:31:51.003Z,36.50
2023-06-19T11:34:23.601Z,36.30
2023-06-19T11:36:55.927Z,36.80
2023-06-19T11:39:24.626Z,36.80
2023-06-19T11:41:54.946Z,36.70
2023-06-19T11:44:24.059Z,36.70
2023-06-19T11:46:52.267Z,36.80
2023-06-19T11:49:22.888Z,36.80
2023-06-19T11:51:51.118Z,36.60
2023-06-19T11:54:19.871Z,36.50
2023-06-19T11:56:48.602Z,36.80
2023-06-19T11:59:20.135Z,37.00
2023-06-19T12:01:48.579Z,37.30
2023-06-19T12:04:17.653Z,37.20
2023-06-19T12:06:47.488Z,37.10
2023-06-19T12:09:15.946Z,36.90
2023-06-19T12:11:44.278Z,36.60
2023-06-19T12:14:12.496Z,36.80
2023-06-19T12:16:40.773Z,37.10
2023-06-19T12:19:09.009Z,37.30
2023-06-19T12:21:41.201Z,37.30
2023-06-19T12:24:12.510Z,37.20
2023-06-19T12:26:41.316Z,37.30
2023-06-19T12:29:09.720Z,37.30
2023-06-19T12:31:38.647Z,37.40
2023-06-19T12:34:21.060Z,37.70
2023-06-19T12:36:58.211Z,37.90
2023-06-19T12:39:28.822Z,38.00
2023-06-19T12:41:57.025Z,38.10
2023-06-19T12:44:25.539Z,38.30
2023-06-19T12:46:53.936Z,38.10
2023-06-19T12:49:22.264Z,38.40
2023-06-19T12:51:52.522Z,38.10
2023-06-19T12:54:21.354Z,38.10
2023-06-19T12:56:51.970Z,38.00
2023-06-19T12:59:20.324Z,37.90
2023-06-19T13:01:48.720Z,38.00
2023-06-19T13:04:17.333Z,38.00
2023-06-19T13:06:45.695Z,38.00
2023-06-19T13:09:14.357Z,38.00
2023-06-19T13:11:42.905Z,38.00
2023-06-19T13:14:12.560Z,37.70
2023-06-19T13:16:46.803Z,37.40
2023-06-19T13:19:18.300Z,37.80
2023-06-19T13:21:46.650Z,38.10
2023-06-19T13:24:14.971Z,37.90
2023-06-19T13:26:43.216Z,38.00
2023-06-19T13:29:13.834Z,38.10
2023-06-19T13:31:42.107Z,38.10
2023-06-19T13:34:10.323Z,37.70
2023-06-19T13:36:38.618Z,37.50
2023-06-19T13:39:06.932Z,37.10
2023-06-19T13:41:36.009Z,36.90
2023-06-19T13:44:04.517Z,36.80
2023-06-19T13:46:34.588Z,37.00
2023-06-19T13:49:02.863Z,37.20
2023-06-19T13:51:31.079Z,37.30
2023-06-19T13:53:59.333Z,37.00
2023-06-19T13:56:28.200Z,37.00
2023-06-19T13:58:56.496Z,37.10
2023-06-19T14:01:26.462Z,37.50
2023-06-19T14:03:58.932Z,37.50
2023-06-19T14:06:27.408Z,37.70
2023-06-19T14:08:56.914Z,37.50
2023-06-19T14:11:27.015Z,37.30
2023-06-19T14:13:55.214Z,37.00
2023-06-19T14:16:25.944Z,36.60
2023-06-19T14:18:55.560Z,36.90
2023-06-19T14:21:26.746Z,37.00
2023-06-19T14:23:55.011Z,37.00
2023-06-19T14:26:23.906Z,37.10
2023-06-19T14:28:56.265Z,37.00
2023-06-19T14:31:24.538Z,37.20
2023-06-19T14:33:52.812Z,37.20
2023-06-19T14:36:22.648Z,37.40
2023-06-19T14:38:50.841Z,37.30
2023-06-19T14:41:19.062Z,37.00
2023-06-19T14:43:47.301Z,37.40
2023-06-19T14:46:26.032Z,37.30
2023-06-19T14:49:04.029Z,37.40
2023-06-19T14:51:33.659Z,37.40
2023-06-19T14:54:02.015Z,37.50
2023-06-19T14:56:30.305Z,37.40
2023-06-19T14:58:58.804Z,37.40
2023-06-19T15:01:28.003Z,37.50
2023-06-19T15:03:56.523Z,37.20
2023-06-19T15:06:26.566Z,37.20
2023-06-19T15:08:56.156Z,37.40
2023-06-19T15:11:24.435Z,37.20
2023-06-19T15:13:52.698Z,37.30
2023-06-19T15:16:23.259Z,37.10
2023-06-19T15:18:51.657Z,37.20
2023-06-19T15:21:20.260Z,37.40
2023-06-19T15:23:50.076Z,37.50
2023-06-19T15:26:19.692Z,37.80
2023-06-19T15:28:48.588Z,37.80
2023-06-19T15:31:17.750Z,38.00
2023-06-19T15:33:46.182Z,38.10
2023-06-19T15:36:14.556Z,37.70
2023-06-19T15:38:42.863Z,37.70
2023-06-19T15:41:11.296Z,38.00
2023-06-19T15:43:41.381Z,38.10
2023-06-19T15:46:10.103Z,38.30
2023-06-19T15:48:38.488Z,38.30
2023-06-19T15:51:09.592Z,38.50
2023-06-19T15:53:39.526Z,38.40
2023-06-19T15:56:07.859Z,38.40
2023-06-19T15:58:36.302Z,38.30
2023-06-19T16:01:08.490Z,38.50
2023-06-19T16:03:37.525Z,38.40
2023-06-19T16:06:08.781Z,38.30
2023-06-19T16:08:37.352Z,38.40
2023-06-19T16:11:06.467Z,38.40
2023-06-19T16:13:34.996Z,38.40
2023-06-19T16:16:07.789Z,38.50
2023-06-19T16:18:36.209Z,38.50
2023-06-19T16:21:04.756Z,38.40
2023-06-19T16:23:32.990Z,38.40
2023-06-19T16:26:01.219Z,38.40
2023-06-19T16:28:30.530Z,38.40
2023-06-19T16:30:58.797Z,38.40
2023-06-19T16:33:28.348Z,38.30
2023-06-19T16:35:56.544Z,38.30
2023-06-19T16:38:24.722Z,38.30
2023-06-19T16:40:52.901Z,38.20
2023-06-19T16:43:21.090Z,38.20
2023-06-19T16:45:49.367Z,38.10
2023-06-19T16:48:17.592Z,38.00
2023-06-19T16:50:47.142Z,38.00
2023-06-19T16:53:15.349Z,37.90
2023-06-19T16:55:43.527Z,37.90
2023-06-19T16:58:11.743Z,37.80
2023-06-19T17:00:39.985Z,37.70
2023-06-19T17:03:09.054Z,37.60
2023-06-19T17:05:37.773Z,37.50
2023-06-19T17:08:07.480Z,37.30
2023-06-19T17:10:38.119Z,37.30
2023-06-19T17:13:09.601Z,37.30
2023-06-19T17:15:37.814Z,37.10
2023-06-19T17:18:09.069Z,36.90
2023-06-19T17:20:37.456Z,36.90
2023-06-19T17:23:07.000Z,36.70
2023-06-19T17:25:38.491Z,36.60
2023-06-19T17:28:06.769Z,36.50
2023-06-19T17:30:37.380Z,36.40
2023-06-19T17:33:06.544Z,36.30
2023-06-19T17:35:34.808Z,36.30
2023-06-19T17:38:03.109Z,36.20
2023-06-19T17:40:32.677Z,36.10
2023-06-19T17:43:00.904Z,36.10
2023-06-19T17:45:29.060Z,35.90
2023-06-19T17:47:57.835Z,35.90
2023-06-19T17:50:26.383Z,35.80
2023-06-19T17:52:55.008Z,35.70
2023-06-19T17:55:23.221Z,35.60
2023-06-19T17:57:52.828Z,35.50
2023-06-19T18:00:21.672Z,35.40
2023-06-19T18:02:49.967Z,35.20
2023-06-19T18:05:18.299Z,35.10
2023-06-19T18:07:46.514Z,35.10
2023-06-19T18:10:24.610Z,34.80
2023-06-19T18:12:54.479Z,34.70
2023-06-19T18:15:22.708Z,34.70
2023-06-19T18:17:50.990Z,34.60
2023-06-19T18:20:19.265Z,34.10
2023-06-19T18:22:47.524Z,33.70
2023-06-19T18:25:15.884Z,33.50
2023-06-19T18:27:44.100Z,33.40
2023-06-19T18:30:14.246Z,33.50
2023-06-19T18:32:42.462Z,33.20
2023-06-19T18:35:11.302Z,33.00
2023-06-19T18:37:39.498Z,33.00
2023-06-19T18:40:09.902Z,33.00
2023-06-19T18:42:42.102Z,33.00
2023-06-19T18:45:11.218Z,33.00
2023-06-19T18:47:40.796Z,32.70
2023-06-19T18:50:10.544Z,32.70
2023-06-19T18:52:38.867Z,32.60
2023-06-19T18:55:08.073Z,32.70
2023-06-19T18:57:36.234Z,32.50
2023-06-19T19:00:04.971Z,32.50
2023-06-19T19:02:33.896Z,32.30
2023-06-19T19:05:03.550Z,32.20
2023-06-19T19:07:32.866Z,32.30
2023-06-19T19:10:01.043Z,32.30
2023-06-19T19:12:29.245Z,32.40
2023-06-19T19:14:57.428Z,32.30
2023-06-19T19:17:25.768Z,32.30
2023-06-19T19:19:53.957Z,32.40
2023-06-19T19:22:23.489Z,32.40
2023-06-19T19:24:51.690Z,32.00
2023-06-19T19:27:19.870Z,31.70
2023-06-19T19:29:48.225Z,31.30
2023-06-19T19:32:22.003Z,31.30
2023-06-19T19:34:51.838Z,31.10
2023-06-19T19:37:20.001Z,30.90
2023-06-19T19:39:49.540Z,31.00
2023-06-19T19:42:18.381Z,31.10
2023-06-19T19:44:48.385Z,31.10
2023-06-19T19:47:17.035Z,30.90
2023-06-19T19:49:47.533Z,31.00
2023-06-19T19:52:16.032Z,30.60
2023-06-19T19:54:47.614Z,30.70
2023-06-19T19:57:17.476Z,30.60
2023-06-19T19:59:45.728Z,30.50
2023-06-19T20:02:13.967Z,30.40
2023-06-19T20:04:42.208Z,30.20
2023-06-19T20:07:10.962Z,30.20
2023-06-19T20:09:39.346Z,30.20
2023-06-19T20:12:20.798Z,30.20
2023-06-19T20:14:51.876Z,30.20
2023-06-19T20:17:20.080Z,30.20
2023-06-19T20:19:48.378Z,30.00
2023-06-19T20:22:16.660Z,30.10
2023-06-19T20:24:47.652Z,30.00
2023-06-19T20:27:17.656Z,29.80
2023-06-19T20:29:45.859Z,29.80
2023-06-19T20:32:17.756Z,29.70
2023-06-19T20:34:47.781Z,29.60
2023-06-19T20:37:16.050Z,29.60
2023-06-19T20:39:44.391Z,29.60
2023-06-19T20:42:12.853Z,29.80
2023-06-19T20:44:41.097Z,29.90
2023-06-19T20:47:09.451Z,29.80
2023-06-19T20:49:39.023Z,29.90
2023-06-19T20:52:07.640Z,29.80
2023-06-19T20:54:35.825Z,29.80
2023-06-19T20:57:06.159Z,29.90
2023-06-19T20:59:34.990Z,29.80
2023-06-19T21:02:05.872Z,29.90
2023-06-19T21:04:34.664Z,30.00
2023-06-19T21:07:04.192Z,29.70
2023-06-19T21:09:32.343Z,29.80
2023-06-19T21:12:00.531Z,29.50
2023-06-19T21:14:28.851Z,29.40
2023-06-19T21:16:58.080Z,29.20
2023-06-19T21:19:26.554Z,29.50
2023-06-19T21:21:57.115Z,29.50
2023-06-19T21:24:28.675Z,29.50
2023-06-19T21:26:57.152Z,29.50
2023-06-19T21:29:25.560Z,29.60
2023-06-19T21:31:53.986Z,29.50
2023-06-19T21:34:24.110Z,29.60
2023-06-19T21:36:52.758Z,29.60
2023-06-19T21:39:20.985Z,29.40
2023-06-19T21:41:50.552Z,29.30
2023-06-19T21:44:18.783Z,29.20
2023-06-19T21:46:47.092Z,29.20
2023-06-19T21:49:15.861Z,29.20
2023-06-19T21:51:44.846Z,29.30
2023-06-19T21:54:13.060Z,29.50
2023-06-19T21:56:41.265Z,29.40
2023-06-19T21:59:10.834Z,29.60
2023-06-19T22:01:40.458Z,29.60
2023-06-19T22:04:08.803Z,29.70
2023-06-19T22:06:37.360Z,29.80
2023-06-19T22:09:06.354Z,29.70
2023-06-19T22:11:34.521Z,29.50
2023-06-19T22:14:02.753Z,29.30
2023-06-19T22:16:33.352Z,29.40
2023-06-19T22:19:03.324Z,29.30
2023-06-19T22:21:31.574Z,29.20
2023-06-19T22:23:59.817Z,29.30
2023-06-19T22:26:28.105Z,29.30
2023-06-19T22:28:59.178Z,29.20
2023-06-19T22:31:27.438Z,29.00
2023-06-19T22:33:57.326Z,29.00
2023-06-19T22:36:25.625Z,29.00
2023-06-19T22:38:56.429Z,28.90
2023-06-19T22:41:27.564Z,29.00
2023-06-19T22:43:56.927Z,29.30
2023-06-19T22:46:25.188Z,29.50
2023-06-19T22:48:53.511Z,29.50
2023-06-19T22:51:23.551Z,29.70
2023-06-19T22:53:51.879Z,29.90
2023-06-19T22:56:20.066Z,29.80
2023-06-19T22:58:48.312Z,29.80
2023-06-19T23:01:26.852Z,29.70
2023-06-19T23:03:55.447Z,29.70
2023-06-19T23:06:25.296Z,29.80
2023-06-19T23:08:53.532Z,29.80
2023-06-19T23:11:21.803Z,29.90
2023-06-19T23:13:50.050Z,30.00
2023-06-19T23:16:18.427Z,30.00
2023-06-19T23:18:46.642Z,30.10
2023-06-19T23:21:15.272Z,30.10
2023-06-19T23:23:48.123Z,30.00
2023-06-19T23:26:24.408Z,29.90
2023-06-19T23:28:52.678Z,29.70
2023-06-19T23:31:22.186Z,29.50
2023-06-19T23:33:51.543Z,29.70
2023-06-19T23:36:19.980Z,29.70
2023-06-19T23:38:51.653Z,29.70
2023-06-19T23:41:20.658Z,29.70
2023-06-19T23:43:49.086Z,29.60
2023-06-19T23:46:18.800Z,29.40
2023-06-19T23:48:47.311Z,29.50
2023-06-19T23:51:15.554Z,29.70
2023-06-19T23:53:44.013Z,29.40
2023-06-19T23:56:13.602Z,29.50
2023-06-19T23:58:41.801Z,29.70
